createdAt,value
2018-12-27T00:01:47.871Z,-2.70
2018-12-27T00:04:18.363Z,-2.70
2018-12-27T00:06:49.094Z,-2.80
2018-12-27T00:09:19.875Z,-2.90
2018-12-27T00:11:50.325Z,-3.00
2018-12-27T00:14:20.831Z,-3.00
2018-12-27T00:16:51.790Z,-3.00
2018-12-27T00:19:22.552Z,-3.00
2018-12-27T00:21:53.062Z,-3.00
2018-12-27T00:24:23.582Z,-3.10
2018-12-27T00:26:54.110Z,-3.00
2018-12-27T00:29:24.641Z,-2.80
2018-12-27T00:31:55.328Z,-2.80
2018-12-27T00:34:26.033Z,-2.80
2018-12-27T00:36:56.768Z,-2.80
2018-12-27T00:39:27.404Z,-2.90
2018-12-27T00:41:58.092Z,-2.90
2018-12-27T00:44:28.676Z,-2.80
2018-12-27T00:46:59.651Z,-2.80
2018-12-27T00:49:30.642Z,-2.90
2018-12-27T00:52:01.296Z,-3.00
2018-12-27T00:54:31.906Z,-2.90
2018-12-27T00:57:02.604Z,-2.90
2018-12-27T00:59:33.184Z,-2.90
2018-12-27T01:02:03.874Z,-2.80
2018-12-27T01:04:34.495Z,-2.90
2018-12-27T01:07:05.111Z,-2.90
2018-12-27T01:09:35.697Z,-2.90
2018-12-27T01:12:06.351Z,-2.90
2018-12-27T01:14:37.051Z,-2.80
2018-12-27T01:17:08.079Z,-2.90
2018-12-27T01:19:38.732Z,-2.90
2018-12-27T01:22:09.318Z,-2.90
2018-12-27T01:24:39.940Z,-2.90
2018-12-27T01:27:11.090Z,-3.00
2018-12-27T01:29:41.749Z,-3.00
2018-12-27T01:32:12.515Z,-3.00
2018-12-27T01:34:43.220Z,-3.00
2018-12-27T01:37:15.343Z,-3.00
2018-12-27T01:39:46.571Z,-3.00
2018-12-27T01:42:17.177Z,-3.00
2018-12-27T01:44:47.726Z,-2.90
2018-12-27T01:47:18.357Z,-2.90
2018-12-27T01:49:49.017Z,-2.90
2018-12-27T01:52:19.903Z,-2.90
2018-12-27T01:54:51.447Z,-2.90
2018-12-27T01:57:23.251Z,-2.90
2018-12-27T01:59:54.252Z,-2.90
2018-12-27T02:02:24.940Z,-3.00
2018-12-27T02:04:55.760Z,-3.00
2018-12-27T02:07:26.556Z,-3.00
2018-12-27T02:09:57.169Z,-3.00
2018-12-27T02:12:28.520Z,-3.00
2018-12-27T02:14:59.885Z,-3.00
2018-12-27T02:17:30.599Z,-3.10
2018-12-27T02:20:01.285Z,-3.20
2018-12-27T02:22:31.985Z,-3.20
2018-12-27T02:25:02.904Z,-3.30
2018-12-27T02:27:33.638Z,-3.20
2018-12-27T02:30:04.291Z,-3.20
2018-12-27T02:32:36.968Z,-3.10
2018-12-27T02:35:07.583Z,-3.00
2018-12-27T02:37:38.921Z,-3.00
2018-12-27T02:40:09.535Z,-3.00
2018-12-27T02:42:40.218Z,-3.00
2018-12-27T02:45:11.271Z,-3.00
2018-12-27T02:47:42.048Z,-3.00
2018-12-27T02:50:12.653Z,-3.00
2018-12-27T02:52:43.424Z,-3.00
2018-12-27T02:55:14.459Z,-3.00
2018-12-27T02:57:45.212Z,-2.90
2018-12-27T03:00:15.953Z,-2.90
2018-12-27T03:02:47.368Z,-2.90
2018-12-27T03:05:18.051Z,-2.90
2018-12-27T03:07:48.720Z,-3.00
2018-12-27T03:10:19.348Z,-3.10
2018-12-27T03:12:49.996Z,-3.10
2018-12-27T03:15:20.673Z,-3.10
2018-12-27T03:17:51.481Z,-3.00
2018-12-27T03:20:22.179Z,-3.00
2018-12-27T03:22:52.995Z,-2.80
2018-12-27T03:25:23.819Z,-2.80
2018-12-27T03:27:54.479Z,-2.70
2018-12-27T03:30:25.173Z,-2.80
2018-12-27T03:32:55.941Z,-2.80
2018-12-27T03:35:26.575Z,-2.70
2018-12-27T03:37:57.251Z,-2.70
2018-12-27T03:40:27.837Z,-2.80
2018-12-27T03:42:58.564Z,-2.70
2018-12-27T03:45:29.179Z,-2.60
2018-12-27T03:47:59.888Z,-2.60
2018-12-27T03:50:30.614Z,-2.80
2018-12-27T03:53:01.692Z,-2.70
2018-12-27T03:55:32.413Z,-2.70
2018-12-27T03:58:03.485Z,-2.60
2018-12-27T04:00:34.138Z,-2.70
2018-12-27T04:03:04.883Z,-2.70
2018-12-27T04:05:35.485Z,-2.70
2018-12-27T04:08:06.141Z,-2.70
2018-12-27T04:10:36.733Z,-2.70
2018-12-27T04:13:07.940Z,-2.60
2018-12-27T04:15:38.417Z,-2.50
2018-12-27T04:18:08.928Z,-2.70
2018-12-27T04:20:39.476Z,-2.70
2018-12-27T04:23:10.137Z,-2.70
2018-12-27T04:25:40.849Z,-2.80
2018-12-27T04:28:11.289Z,-2.90
2018-12-27T04:30:41.891Z,-2.90
2018-12-27T04:33:16.993Z,-2.90
2018-12-27T04:35:49.779Z,-2.90
2018-12-27T04:38:20.246Z,-2.90
2018-12-27T04:41:02.953Z,-2.90
2018-12-27T04:43:36.294Z,-2.90
2018-12-27T04:46:06.074Z,-2.90
2018-12-27T04:48:36.212Z,-3.10
2018-12-27T04:51:06.126Z,-3.00
2018-12-27T04:53:35.880Z,-3.00
2018-12-27T04:56:05.744Z,-3.00
2018-12-27T04:58:35.626Z,-3.00
2018-12-27T05:01:05.396Z,-3.00
2018-12-27T05:03:35.170Z,-3.20
2018-12-27T05:06:05.048Z,-3.30
2018-12-27T05:08:34.817Z,-3.20
2018-12-27T05:11:04.676Z,-3.20
2018-12-27T05:13:34.452Z,-3.20
2018-12-27T05:16:04.346Z,-3.20
2018-12-27T05:18:34.168Z,-3.20
2018-12-27T05:21:04.077Z,-3.30
2018-12-27T05:23:33.849Z,-3.20
2018-12-27T05:26:03.689Z,-3.20
2018-12-27T05:28:34.443Z,-3.20
2018-12-27T05:31:04.239Z,-3.30
2018-12-27T05:33:33.998Z,-3.50
2018-12-27T05:36:03.866Z,-3.60
2018-12-27T05:38:33.705Z,-3.60
2018-12-27T05:41:03.473Z,-3.70
2018-12-27T05:43:33.274Z,-3.80
2018-12-27T05:46:03.110Z,-3.80
2018-12-27T05:48:32.978Z,-3.80
2018-12-27T05:51:02.758Z,-3.90
2018-12-27T05:53:32.601Z,-3.90
2018-12-27T05:56:02.443Z,-4.00
2018-12-27T05:58:32.239Z,-4.00
2018-12-27T06:01:02.167Z,-4.10
2018-12-27T06:03:32.316Z,-4.10
2018-12-27T06:06:02.162Z,-4.10
2018-12-27T06:08:31.943Z,-4.00
2018-12-27T06:11:02.068Z,-4.00
2018-12-27T06:13:32.384Z,-4.00
2018-12-27T06:16:02.174Z,-4.00
2018-12-27T06:18:32.404Z,-3.90
2018-12-27T06:21:02.376Z,-3.70
2018-12-27T06:23:32.252Z,-3.60
2018-12-27T06:26:03.294Z,-3.50
2018-12-27T06:28:33.133Z,-3.50
2018-12-27T06:31:02.912Z,-3.50
2018-12-27T06:33:32.759Z,-3.60
2018-12-27T06:36:02.546Z,-3.60
2018-12-27T06:38:32.431Z,-3.70
2018-12-27T06:41:02.204Z,-3.60
2018-12-27T06:43:31.991Z,-3.50
2018-12-27T06:46:02.079Z,-3.40
2018-12-27T06:48:31.874Z,-3.50
2018-12-27T06:51:01.658Z,-3.70
2018-12-27T06:53:31.786Z,-3.60
2018-12-27T06:56:01.549Z,-3.70
2018-12-27T06:58:37.711Z,-3.70
2018-12-27T07:01:02.916Z,-3.80
2018-12-27T07:03:32.684Z,-3.80
2018-12-27T07:06:02.452Z,-3.80
2018-12-27T07:08:32.319Z,-3.80
2018-12-27T07:11:02.573Z,-3.80
2018-12-27T07:13:32.386Z,-3.70
2018-12-27T07:16:02.659Z,-3.60
2018-12-27T07:18:36.380Z,-3.70
2018-12-27T07:21:06.339Z,-3.50
2018-12-27T07:23:36.310Z,-3.50
2018-12-27T07:26:06.532Z,-3.50
2018-12-27T07:28:36.289Z,-3.30
2018-12-27T07:31:06.407Z,-3.30
2018-12-27T07:33:36.278Z,-3.20
2018-12-27T07:36:08.010Z,-3.20
2018-12-27T07:38:37.853Z,-3.00
2018-12-27T07:41:07.982Z,-3.10
2018-12-27T07:43:37.740Z,-3.10
2018-12-27T07:46:11.070Z,-3.10
2018-12-27T07:48:40.134Z,-3.00
2018-12-27T07:51:10.113Z,-2.90
2018-12-27T07:53:39.953Z,-2.90
2018-12-27T07:56:09.803Z,-3.00
2018-12-27T07:58:39.582Z,-2.90
2018-12-27T08:01:09.354Z,-2.70
2018-12-27T08:03:40.270Z,-2.50
2018-12-27T08:06:10.059Z,-2.30
2018-12-27T08:08:39.823Z,-1.80
2018-12-27T08:11:09.613Z,-1.10
2018-12-27T08:13:39.743Z,-1.20
2018-12-27T08:16:09.605Z,-1.30
2018-12-27T08:18:39.377Z,-1.20
2018-12-27T08:21:09.460Z,-1.30
2018-12-27T08:23:39.295Z,-1.60
2018-12-27T08:26:09.168Z,-1.60
2018-12-27T08:28:39.409Z,-1.20
2018-12-27T08:31:09.184Z,-1.20
2018-12-27T08:33:38.969Z,-0.90
2018-12-27T08:36:08.734Z,-1.00
2018-12-27T08:38:38.682Z,-1.40
2018-12-27T08:41:08.596Z,-1.60
2018-12-27T08:43:38.457Z,-1.50
2018-12-27T08:46:08.541Z,-1.50
2018-12-27T08:48:38.897Z,-1.60
2018-12-27T08:51:08.759Z,-1.60
2018-12-27T08:53:38.551Z,-1.70
2018-12-27T08:56:08.421Z,-1.70
2018-12-27T08:58:38.205Z,-1.40
2018-12-27T09:01:07.996Z,-1.00
2018-12-27T09:03:38.118Z,-1.00
2018-12-27T09:06:08.149Z,-1.10
2018-12-27T09:08:38.126Z,-1.20
2018-12-27T09:11:08.499Z,-1.40
2018-12-27T09:13:38.638Z,-1.40
2018-12-27T09:16:08.571Z,-1.50
2018-12-27T09:18:41.160Z,-1.60
2018-12-27T09:21:11.026Z,-1.50
2018-12-27T09:23:41.127Z,-1.20
2018-12-27T09:26:11.342Z,-1.20
2018-12-27T09:28:41.106Z,-1.20
2018-12-27T09:31:10.959Z,-1.20
2018-12-27T09:33:40.805Z,-1.10
2018-12-27T09:36:10.823Z,-1.10
2018-12-27T09:38:40.640Z,-1.10
2018-12-27T09:41:10.433Z,-0.80
2018-12-27T09:43:40.194Z,-0.80
2018-12-27T09:46:10.050Z,-0.40
2018-12-27T09:48:42.597Z,-0.50
2018-12-27T09:51:12.658Z,-0.50
2018-12-27T09:53:43.007Z,-0.20
2018-12-27T09:56:12.966Z,0.00
2018-12-27T09:58:42.903Z,-0.20
2018-12-27T10:01:12.856Z,-0.20
2018-12-27T10:03:42.658Z,0.30
2018-12-27T10:06:12.490Z,0.40
2018-12-27T10:08:42.395Z,0.30
2018-12-27T10:11:12.484Z,1.00
2018-12-27T10:13:42.389Z,0.50
2018-12-27T10:16:12.165Z,0.80
2018-12-27T10:18:42.059Z,1.00
2018-12-27T10:21:11.933Z,1.60
2018-12-27T10:23:41.686Z,2.20
2018-12-27T10:26:11.786Z,2.30
2018-12-27T10:28:41.551Z,1.90
2018-12-27T10:31:11.375Z,1.90
2018-12-27T10:33:41.130Z,1.20
2018-12-27T10:36:10.977Z,1.60
2018-12-27T10:38:40.749Z,1.60
2018-12-27T10:41:10.576Z,2.00
2018-12-27T10:43:40.505Z,2.10
2018-12-27T10:46:10.308Z,3.50
2018-12-27T10:48:40.063Z,6.30
2018-12-27T10:51:09.894Z,8.70
2018-12-27T10:53:39.729Z,10.10
2018-12-27T10:56:09.885Z,9.30
2018-12-27T10:58:39.658Z,9.50
2018-12-27T11:01:09.478Z,9.10
2018-12-27T11:03:39.391Z,9.90
2018-12-27T11:06:09.591Z,9.70
2018-12-27T11:08:39.371Z,9.20
2018-12-27T11:11:09.886Z,8.60
2018-12-27T11:13:40.135Z,9.70
2018-12-27T11:16:10.901Z,10.70
2018-12-27T11:18:40.857Z,12.00
2018-12-27T11:21:10.895Z,11.80
2018-12-27T11:23:41.453Z,12.80
2018-12-27T11:26:11.464Z,12.60
2018-12-27T11:28:41.333Z,11.10
2018-12-27T11:31:11.353Z,11.10
2018-12-27T11:33:41.286Z,10.20
2018-12-27T11:36:17.160Z,10.10
2018-12-27T11:38:43.759Z,9.70
2018-12-27T11:41:13.673Z,11.20
2018-12-27T11:43:43.575Z,11.10
2018-12-27T11:46:13.726Z,10.90
2018-12-27T11:48:43.581Z,11.50
2018-12-27T11:51:13.461Z,10.50
2018-12-27T11:53:43.593Z,10.40
2018-12-27T11:56:13.738Z,10.80
2018-12-27T11:58:43.920Z,11.20
2018-12-27T12:01:13.976Z,10.60
2018-12-27T12:03:43.841Z,11.10
2018-12-27T12:06:13.789Z,13.20
2018-12-27T12:08:46.662Z,13.40
2018-12-27T12:11:16.959Z,13.30
2018-12-27T12:13:47.479Z,11.90
2018-12-27T12:16:17.505Z,11.10
2018-12-27T12:18:47.391Z,11.90
2018-12-27T12:21:17.383Z,11.40
2018-12-27T12:23:47.703Z,9.60
2018-12-27T12:26:18.066Z,9.60
2018-12-27T12:28:48.260Z,10.90
2018-12-27T12:31:18.587Z,11.60
2018-12-27T12:33:49.593Z,11.30
2018-12-27T12:36:19.893Z,11.40
2018-12-27T12:38:50.487Z,11.90
2018-12-27T12:41:20.801Z,11.90
2018-12-27T12:43:50.921Z,12.10
2018-12-27T12:46:21.454Z,12.80
2018-12-27T12:48:51.715Z,13.60
2018-12-27T12:51:23.142Z,12.80
2018-12-27T12:53:53.622Z,10.80
2018-12-27T12:56:23.919Z,10.80
2018-12-27T12:58:54.143Z,11.00
2018-12-27T13:01:24.444Z,11.10
2018-12-27T13:03:54.726Z,10.90
2018-12-27T13:06:25.040Z,11.70
2018-12-27T13:08:55.322Z,14.60
2018-12-27T13:11:26.811Z,14.40
2018-12-27T13:13:57.101Z,11.50
2018-12-27T13:16:27.319Z,10.40
2018-12-27T13:18:57.907Z,9.00
2018-12-27T13:21:28.780Z,7.60
2018-12-27T13:23:58.980Z,7.10
2018-12-27T13:26:28.823Z,7.00
2018-12-27T13:28:58.592Z,6.50
2018-12-27T13:31:28.378Z,7.40
2018-12-27T13:33:58.282Z,6.80
2018-12-27T13:36:28.477Z,6.50
2018-12-27T13:38:58.263Z,7.00
2018-12-27T13:41:28.025Z,7.20
2018-12-27T13:43:57.884Z,7.50
2018-12-27T13:46:27.684Z,7.30
2018-12-27T13:48:57.474Z,6.30
2018-12-27T13:51:27.250Z,6.10
2018-12-27T13:53:57.013Z,6.10
2018-12-27T13:56:26.882Z,5.70
2018-12-27T13:58:56.730Z,5.80
2018-12-27T14:01:26.575Z,6.00
2018-12-27T14:03:56.494Z,5.60
2018-12-27T14:06:32.568Z,5.10
2018-12-27T14:08:57.753Z,5.10
2018-12-27T14:11:27.663Z,5.00
2018-12-27T14:13:57.515Z,5.10
2018-12-27T14:16:27.450Z,5.20
2018-12-27T14:18:58.185Z,5.20
2018-12-27T14:21:28.045Z,5.00
2018-12-27T14:23:57.839Z,4.90
2018-12-27T14:26:27.831Z,4.70
2018-12-27T14:28:57.691Z,4.40
2018-12-27T14:31:29.343Z,4.00
2018-12-27T14:34:01.093Z,3.80
2018-12-27T14:36:31.614Z,3.60
2018-12-27T14:39:04.668Z,3.50
2018-12-27T14:41:34.478Z,3.30
2018-12-27T14:44:04.358Z,3.40
2018-12-27T14:46:34.799Z,3.60
2018-12-27T14:49:04.673Z,3.50
2018-12-27T14:51:34.447Z,3.50
2018-12-27T14:54:04.374Z,3.30
2018-12-27T14:56:34.238Z,3.10
2018-12-27T14:59:04.087Z,3.00
2018-12-27T15:01:33.940Z,2.70
2018-12-27T15:04:03.797Z,2.60
2018-12-27T15:06:33.643Z,2.40
2018-12-27T15:09:04.794Z,2.10
2018-12-27T15:11:34.626Z,1.90
2018-12-27T15:14:04.646Z,1.70
2018-12-27T15:16:42.060Z,2.00
2018-12-27T15:19:12.545Z,2.20
2018-12-27T15:21:42.768Z,1.90
2018-12-27T15:24:13.049Z,1.60
2018-12-27T15:26:46.058Z,1.40
2018-12-27T15:29:17.228Z,1.10
2018-12-27T15:31:46.971Z,0.90
2018-12-27T15:34:16.896Z,0.60
2018-12-27T15:36:46.798Z,0.40
2018-12-27T15:39:16.942Z,0.10
2018-12-27T15:41:46.771Z,0.10
2018-12-27T15:44:16.656Z,0.10
2018-12-27T15:46:46.430Z,0.00
2018-12-27T15:49:16.558Z,-0.20
2018-12-27T15:52:00.902Z,-0.30
2018-12-27T15:54:31.034Z,-0.40
2018-12-27T15:57:00.879Z,-0.50
2018-12-27T15:59:30.679Z,-0.50
2018-12-27T16:02:00.463Z,-0.60
2018-12-27T16:04:30.240Z,-0.60
2018-12-27T16:07:01.960Z,-0.70
2018-12-27T16:09:34.875Z,-0.70
2018-12-27T16:12:04.797Z,-0.60
2018-12-27T16:14:34.714Z,-0.50
2018-12-27T16:17:05.099Z,-0.50
2018-12-27T16:19:35.762Z,-0.50
2018-12-27T16:22:05.633Z,-0.50
2018-12-27T16:24:35.473Z,-0.60
2018-12-27T16:27:05.342Z,-0.70
2018-12-27T16:29:35.171Z,-0.80
2018-12-27T16:32:05.045Z,-0.90
2018-12-27T16:34:35.295Z,-1.00
2018-12-27T16:37:08.895Z,-1.00
2018-12-27T16:39:38.405Z,-1.00
2018-12-27T16:42:08.351Z,-1.10
2018-12-27T16:44:38.232Z,-1.10
2018-12-27T16:47:08.026Z,-1.10
2018-12-27T16:49:37.846Z,-1.10
2018-12-27T16:52:07.771Z,-1.10
2018-12-27T16:54:37.806Z,-1.10
2018-12-27T16:57:08.572Z,-1.10
2018-12-27T16:59:38.500Z,-1.10
2018-12-27T17:02:08.457Z,-1.20
2018-12-27T17:04:38.521Z,-1.30
2018-12-27T17:07:08.381Z,-1.20
2018-12-27T17:09:38.243Z,-1.20
2018-12-27T17:12:08.483Z,-1.20
2018-12-27T17:14:38.315Z,-1.20
2018-12-27T17:17:08.136Z,-1.20
2018-12-27T17:19:38.030Z,-1.20
2018-12-27T17:22:07.834Z,-1.30
2018-12-27T17:24:37.769Z,-1.30
2018-12-27T17:27:08.009Z,-1.30
2018-12-27T17:29:38.198Z,-1.30
2018-12-27T17:32:09.387Z,-1.30
2018-12-27T17:34:42.486Z,-1.30
2018-12-27T17:37:12.426Z,-1.30
2018-12-27T17:39:42.337Z,-1.20
2018-12-27T17:42:12.226Z,-1.20
2018-12-27T17:44:42.001Z,-1.20
2018-12-27T17:47:11.782Z,-1.20
2018-12-27T17:49:41.628Z,-1.30
2018-12-27T17:52:11.430Z,-1.40
2018-12-27T17:54:41.281Z,-1.50
2018-12-27T17:57:11.229Z,-1.50
2018-12-27T17:59:41.239Z,-1.60
2018-12-27T18:02:11.214Z,-1.70
2018-12-27T18:04:41.167Z,-1.80
2018-12-27T18:07:11.102Z,-1.90
2018-12-27T18:09:41.233Z,-1.90
2018-12-27T18:12:11.100Z,-1.80
2018-12-27T18:14:41.351Z,-1.80
2018-12-27T18:17:11.151Z,-1.80
2018-12-27T18:19:40.975Z,-1.90
2018-12-27T18:22:10.782Z,-2.00
2018-12-27T18:24:42.180Z,-1.90
2018-12-27T18:27:12.090Z,-1.80
2018-12-27T18:29:41.966Z,-1.70
2018-12-27T18:32:11.813Z,-1.80
2018-12-27T18:34:41.655Z,-1.90
2018-12-27T18:37:11.602Z,-1.80
2018-12-27T18:39:41.472Z,-1.70
2018-12-27T18:42:11.368Z,-1.50
2018-12-27T18:44:41.242Z,-1.40
2018-12-27T18:47:11.382Z,-1.40
2018-12-27T18:49:41.316Z,-1.50
2018-12-27T18:52:11.622Z,-1.40
2018-12-27T18:54:41.625Z,-1.30
